Time;durP1;ratioP1;P1;durP2;ratioP2;P2;SDS_P1;SDS_P2;PMS_P1;PMS_P2;Temp;Humidity;BMP_temperature;BMP_pressure;BME280_temperature;BME280_humidity;BME280_pressure;Samples;Min_cycle;Max_cycle;Signal;HPM_P1;HPM_P2
2022/01/11 00:01:27;;;;;;;0.50;0.10;;;5.20;1.00;;;;;;5054575;28;20454;-77
2022/01/11 00:03:55;;;;;;;0.50;0.30;;;5.20;1.00;;;;;;5055485;28;20534;-77
2022/01/11 00:06:32;;;;;;;0.50;0.10;;;5.20;1.00;;;;;;5057040;28;20489;-79
2022/01/11 00:09:07;;;;;;;0.50;0.10;;;5.20;1.00;;;;;;5071349;28;20472;-78
2022/01/11 00:11:36;;;;;;;2.27;2.07;;;5.20;1.00;;;;;;5076611;28;20422;-79
2022/01/11 00:14:04;;;;;;;0.50;0.20;;;5.20;1.00;;;;;;5073057;28;20446;-78
2022/01/11 00:16:32;;;;;;;0.50;0.10;;;5.20;1.00;;;;;;5058116;28;20467;-77
2022/01/11 00:19:05;;;;;;;2.97;2.67;;;5.20;1.00;;;;;;5056302;28;20447;-78
2022/01/11 00:21:39;;;;;;;0.50;0.10;;;5.20;1.00;;;;;;5057205;28;20420;-77
2022/01/11 00:26:52;;;;;;;0.50;0.10;;;5.10;1.00;;;;;;5076544;28;20475;-78
2022/01/11 00:29:20;;;;;;;0.50;0.10;;;5.10;1.00;;;;;;5076641;28;20481;-78
2022/01/11 00:31:48;;;;;;;0.50;0.10;;;5.00;1.00;;;;;;5077179;28;20483;-79
2022/01/11 00:34:19;;;;;;;0.50;0.10;;;5.00;1.00;;;;;;5077650;28;20438;-78
2022/01/11 00:36:48;;;;;;;10.70;2.73;;;5.00;1.00;;;;;;5080444;28;20462;-78
2022/01/11 00:39:16;;;;;;;0.50;0.10;;;5.00;1.00;;;;;;5087248;28;20523;-78
2022/01/11 00:41:44;;;;;;;0.50;0.10;;;5.00;1.00;;;;;;5086674;28;20457;-78
2022/01/11 00:44:13;;;;;;;1.07;0.90;;;5.00;1.00;;;;;;5080420;28;20446;-78
2022/01/11 00:46:44;;;;;;;0.50;0.10;;;4.90;1.00;;;;;;5058890;28;20477;-78
2022/01/11 00:49:12;;;;;;;0.73;0.73;;;4.90;1.00;;;;;;5058270;28;20542;-78
2022/01/11 00:51:40;;;;;;;0.50;0.10;;;4.80;1.00;;;;;;5057672;28;20454;-78
2022/01/11 00:54:10;;;;;;;0.50;0.10;;;4.80;1.00;;;;;;5057452;28;20454;-79
2022/01/11 00:56:37;;;;;;;0.50;0.10;;;4.80;1.00;;;;;;5056003;28;20469;-77
2022/01/11 00:59:05;;;;;;;0.50;0.30;;;4.80;1.00;;;;;;5056256;28;20459;-78
2022/01/11 01:01:37;;;;;;;0.50;0.10;;;4.80;1.00;;;;;;5056243;28;20458;-77
2022/01/11 01:04:06;;;;;;;0.50;0.20;;;4.80;1.00;;;;;;5058695;28;20793;-78
2022/01/11 01:06:34;;;;;;;3.23;3.03;;;4.80;1.00;;;;;;5076238;28;20469;-77
2022/01/11 01:09:02;;;;;;;0.70;0.37;;;4.70;1.00;;;;;;5076035;28;20478;-76
2022/01/11 01:11:32;;;;;;;0.50;0.10;;;4.70;1.00;;;;;;5076089;28;20452;-78
2022/01/11 01:14:00;;;;;;;0.50;0.10;;;4.70;1.00;;;;;;5075442;28;20856;-79
2022/01/11 01:16:28;;;;;;;0.50;0.10;;;4.70;1.00;;;;;;5076176;28;20558;-78
2022/01/11 01:18:56;;;;;;;0.50;0.10;;;4.80;1.00;;;;;;5074949;28;20499;-78
2022/01/11 01:21:24;;;;;;;0.50;0.10;;;4.80;1.00;;;;;;5075249;28;20437;-78
2022/01/11 01:23:52;;;;;;;0.50;0.10;;;4.70;1.00;;;;;;5075202;28;20945;-77
2022/01/11 01:26:20;;;;;;;0.50;0.10;;;4.80;1.00;;;;;;5075223;28;20434;-78
2022/01/11 01:28:49;;;;;;;2.77;2.57;;;4.80;1.00;;;;;;5074698;28;20551;-78
2022/01/11 01:31:18;;;;;;;0.50;0.10;;;4.80;1.00;;;;;;5075223;28;20940;-78
2022/01/11 01:33:46;;;;;;;0.50;0.10;;;4.80;1.00;;;;;;5070571;28;20519;-77
2022/01/11 01:36:14;;;;;;;6.83;2.00;;;4.80;1.00;;;;;;5055269;28;20534;-78
2022/01/11 01:38:42;;;;;;;0.50;0.10;;;4.80;1.00;;;;;;5054847;28;20809;-79
2022/01/11 01:41:15;;;;;;;0.50;0.10;;;4.80;1.00;;;;;;5055660;28;20508;-77
2022/01/11 01:43:44;;;;;;;0.50;0.10;;;4.80;1.00;;;;;;5062196;28;20445;-77
2022/01/11 01:46:14;;;;;;;0.50;0.10;;;4.90;1.00;;;;;;5075870;28;20418;-77
2022/01/11 01:48:42;;;;;;;0.50;0.10;;;4.90;1.00;;;;;;5075555;28;20505;-76
2022/01/11 01:51:11;;;;;;;0.50;0.10;;;4.90;1.00;;;;;;5076020;28;20470;-79
2022/01/11 01:53:43;;;;;;;1.10;0.83;;;4.90;1.00;;;;;;5075732;28;20457;-77
2022/01/11 01:56:11;;;;;;;0.50;0.10;;;4.90;1.00;;;;;;5075718;28;20541;-78
2022/01/11 01:58:39;;;;;;;0.50;0.10;;;4.90;1.00;;;;;;5076143;28;20533;-77
2022/01/11 02:01:07;;;;;;;0.50;0.10;;;4.90;1.00;;;;;;5075682;28;20523;-78
2022/01/11 02:03:39;;;;;;;0.50;0.30;;;4.90;1.00;;;;;;5069130;28;20453;-77
2022/01/11 02:06:09;;;;;;;0.50;0.10;;;4.90;1.00;;;;;;5055516;28;20847;-76
2022/01/11 02:08:37;;;;;;;0.50;0.10;;;4.90;1.00;;;;;;5054817;28;20441;-78
2022/01/11 02:11:06;;;;;;;0.50;0.10;;;4.90;1.00;;;;;;5054760;28;20486;-78
2022/01/11 02:13:34;;;;;;;0.50;0.10;;;4.80;1.00;;;;;;5067447;28;20541;-78
2022/01/11 02:16:03;;;;;;;1.27;1.17;;;4.80;1.00;;;;;;5095249;28;20819;-78
2022/01/11 02:18:31;;;;;;;0.50;0.10;;;4.70;1.00;;;;;;5095129;28;20472;-76
2022/01/11 02:21:01;;;;;;;0.50;0.10;;;4.70;1.00;;;;;;5096084;28;20480;-78
2022/01/11 02:23:29;;;;;;;0.50;0.10;;;4.70;1.00;;;;;;5095630;28;20423;-77
2022/01/11 02:25:58;;;;;;;0.50;0.10;;;4.70;1.00;;;;;;5095214;28;20533;-79
2022/01/11 02:28:28;;;;;;;0.50;0.10;;;4.70;1.00;;;;;;5076901;28;20978;-78
2022/01/11 02:30:58;;;;;;;0.50;0.10;;;4.60;1.00;;;;;;5073225;28;20506;-78
2022/01/11 02:33:34;;;;;;;0.50;0.20;;;4.60;1.00;;;;;;5074308;28;20443;-78
2022/01/11 02:36:05;;;;;;;0.50;0.10;;;;;;;;;;5074281;28;20438;-78
2022/01/11 02:38:33;;;;;;;0.50;0.10;;;4.60;1.00;;;;;;5075712;28;20475;-78
2022/01/11 02:41:01;;;;;;;0.50;0.20;;;4.50;1.00;;;;;;5074590;28;20953;-78
2022/01/11 02:43:29;;;;;;;0.73;0.73;;;4.60;1.00;;;;;;5074075;28;20431;-77
2022/01/11 02:46:00;;;;;;;0.50;0.10;;;4.60;1.00;;;;;;5073561;28;20427;-78
2022/01/11 02:48:28;;;;;;;0.50;0.10;;;4.50;1.00;;;;;;5073346;28;20457;-78
2022/01/11 02:50:56;;;;;;;0.50;0.10;;;4.50;1.00;;;;;;5073646;28;20464;-78
2022/01/11 02:53:25;;;;;;;0.50;0.10;;;4.50;1.00;;;;;;5065548;28;20479;-78
2022/01/11 02:55:53;;;;;;;1.37;1.30;;;4.50;1.00;;;;;;5053226;28;20817;-78
2022/01/11 02:58:21;;;;;;;1.00;0.70;;;4.50;1.00;;;;;;5053392;28;20472;-78
2022/01/11 03:00:49;;;;;;;0.50;0.10;;;4.50;1.00;;;;;;5053625;28;20413;-79
2022/01/11 03:03:22;;;;;;;0.50;0.10;;;4.50;1.00;;;;;;5059926;28;20455;-76
2022/01/11 03:05:53;;;;;;;0.50;0.10;;;4.40;1.00;;;;;;5074657;28;21033;-78
2022/01/11 03:08:22;;;;;;;0.50;0.10;;;4.40;1.00;;;;;;5079706;28;20452;-76
2022/01/11 03:10:52;;;;;;;0.50;0.10;;;4.40;1.00;;;;;;5078877;28;20475;-79
2022/01/11 03:13:20;;;;;;;0.50;0.10;;;4.40;1.00;;;;;;5074451;28;20442;-78
2022/01/11 03:15:49;;;;;;;0.50;0.10;;;4.40;1.00;;;;;;5073371;28;20875;-78
2022/01/11 03:18:18;;;;;;;0.50;0.10;;;4.40;1.00;;;;;;5073660;28;20827;-78
2022/01/11 03:20:48;;;;;;;0.50;0.10;;;4.40;1.00;;;;;;5073684;28;20529;-77
2022/01/11 03:23:16;;;;;;;0.50;0.10;;;4.40;1.00;;;;;;5067254;28;20469;-77
2022/01/11 03:25:45;;;;;;;0.50;0.20;;;4.40;1.00;;;;;;5053018;28;20453;-77
2022/01/11 03:28:15;;;;;;;0.50;0.10;;;4.50;1.00;;;;;;5053447;28;20520;-77
2022/01/11 03:30:43;;;;;;;0.50;0.10;;;4.50;1.00;;;;;;5054659;28;21014;-77
2022/01/11 03:33:11;;;;;;;0.50;0.10;;;4.40;1.00;;;;;;5073221;28;20466;-78
2022/01/11 03:35:40;;;;;;;0.50;0.20;;;4.40;1.00;;;;;;5072478;28;20458;-78
2022/01/11 03:38:09;;;;;;;0.50;0.10;;;4.40;1.00;;;;;;5072651;28;21076;-78
2022/01/11 03:40:38;;;;;;;0.50;0.10;;;4.40;1.00;;;;;;5105492;22;20509;-74
2022/01/11 03:43:06;;;;;;;0.50;0.20;;;4.40;1.00;;;;;;5092254;28;20455;-75
2022/01/11 03:45:36;;;;;;;0.50;0.10;;;4.40;1.00;;;;;;5092062;28;20806;-73
2022/01/11 03:48:06;;;;;;;0.50;0.10;;;4.40;1.00;;;;;;5092583;28;20442;-74
2022/01/11 03:50:34;;;;;;;0.50;0.20;;;4.40;1.00;;;;;;5079965;28;20473;-75
2022/01/11 03:53:10;;;;;;;1.43;0.57;;;4.30;1.00;;;;;;5073345;28;20800;-75
2022/01/11 03:55:57;;;;;;;1.37;1.33;;;4.30;1.00;;;;;;5072805;28;20453;-74
2022/01/11 03:58:26;;;;;;;2.00;1.90;;;4.30;1.00;;;;;;5072010;28;20446;-75
2022/01/11 04:00:56;;;;;;;0.50;0.10;;;4.20;1.00;;;;;;5073575;28;20457;-74
2022/01/11 04:03:25;;;;;;;0.60;0.40;;;4.20;1.00;;;;;;5072191;28;20528;-74
2022/01/11 04:05:54;;;;;;;0.50;0.10;;;4.20;1.00;;;;;;5071920;28;20466;-73
2022/01/11 04:08:23;;;;;;;0.50;0.10;;;4.10;1.00;;;;;;5072234;28;20448;-74
2022/01/11 04:10:51;;;;;;;0.50;0.10;;;4.10;1.00;;;;;;5072328;28;21003;-76
2022/01/11 04:13:20;;;;;;;0.50;0.10;;;4.10;1.00;;;;;;5072215;28;20947;-75
2022/01/11 04:15:47;;;;;;;0.50;0.10;;;4.10;1.00;;;;;;5072295;28;20461;-74
2022/01/11 04:18:17;;;;;;;1.83;1.50;;;4.10;1.00;;;;;;5072174;28;20474;-74
2022/01/11 04:20:45;;;;;;;0.50;0.10;;;4.10;1.00;;;;;;5072090;28;20463;-75
2022/01/11 04:23:13;;;;;;;0.50;0.20;;;4.10;1.00;;;;;;5072731;28;20942;-75
2022/01/11 04:25:41;;;;;;;0.50;0.10;;;4.10;1.00;;;;;;5073916;28;20863;-75
2022/01/11 04:28:09;;;;;;;0.50;0.20;;;4.10;1.00;;;;;;5071603;28;20443;-76
2022/01/11 04:30:38;;;;;;;0.50;0.10;;;4.10;1.00;;;;;;5071185;28;21011;-75
2022/01/11 04:33:06;;;;;;;0.50;0.10;;;4.20;1.00;;;;;;5071459;28;20434;-74
2022/01/11 04:35:36;;;;;;;1.50;1.40;;;4.10;1.00;;;;;;5071616;28;20447;-75
2022/01/11 04:38:04;;;;;;;0.50;0.10;;;4.10;1.00;;;;;;5071826;28;20451;-75
2022/01/11 04:40:32;;;;;;;0.70;0.50;;;4.10;1.00;;;;;;5071633;28;20514;-74
2022/01/11 04:42:59;;;;;;;0.50;0.10;;;4.00;1.00;;;;;;5072676;28;20449;-75
2022/01/11 04:45:27;;;;;;;0.50;0.10;;;4.00;1.00;;;;;;5072890;28;20453;-73
2022/01/11 04:47:56;;;;;;;0.50;0.10;;;4.00;1.00;;;;;;5072345;28;20447;-75
2022/01/11 04:50:25;;;;;;;10.57;9.90;;;4.00;1.00;;;;;;5071685;28;20500;-75
2022/01/11 04:52:55;;;;;;;0.50;0.10;;;4.00;1.00;;;;;;5071763;28;20931;-74
2022/01/11 04:55:24;;;;;;;4.67;4.47;;;3.90;1.00;;;;;;5064054;28;20443;-75
2022/01/11 04:57:52;;;;;;;0.50;0.10;;;4.00;1.00;;;;;;5056858;28;20520;-74
2022/01/11 05:00:22;;;;;;;0.70;0.70;;;4.00;1.00;;;;;;5059913;28;20477;-75
2022/01/11 05:02:50;;;;;;;2.10;1.47;;;4.00;1.00;;;;;;5074146;28;20451;-73
2022/01/11 05:05:18;;;;;;;0.50;0.10;;;4.00;1.00;;;;;;5074620;28;20532;-75
2022/01/11 05:07:47;;;;;;;0.50;0.10;;;4.00;1.00;;;;;;5074926;28;20448;-75
2022/01/11 05:10:16;;;;;;;0.50;0.10;;;4.10;1.00;;;;;;5075178;28;20474;-76
2022/01/11 05:12:44;;;;;;;0.50;0.10;;;4.00;1.00;;;;;;5074464;28;21017;-75
2022/01/11 05:15:13;;;;;;;0.50;0.10;;;4.10;1.00;;;;;;5076026;28;20447;-73
2022/01/11 05:17:42;;;;;;;0.50;0.10;;;4.10;1.00;;;;;;5072608;28;20446;-75
2022/01/11 05:20:12;;;;;;;1.07;0.97;;;4.20;1.00;;;;;;5076036;28;20461;-73
2022/01/11 05:22:40;;;;;;;0.50;0.10;;;4.20;1.00;;;;;;5074912;28;20786;-74
2022/01/11 05:25:11;;;;;;;0.50;0.10;;;4.20;1.00;;;;;;5074576;28;20436;-75
2022/01/11 05:27:41;;;;;;;0.50;0.13;;;4.20;1.00;;;;;;5074875;28;20434;-75
2022/01/11 05:30:10;;;;;;;0.50;0.10;;;4.20;1.00;;;;;;5073823;28;20471;-75
2022/01/11 05:32:38;;;;;;;0.50;0.10;;;4.20;1.00;;;;;;5069438;28;20473;-75
2022/01/11 05:35:08;;;;;;;0.50;0.10;;;4.30;1.00;;;;;;5085392;28;20974;-74
2022/01/11 05:37:36;;;;;;;0.50;0.10;;;4.30;1.00;;;;;;5087338;28;20443;-74
2022/01/11 05:40:05;;;;;;;0.50;0.10;;;4.30;1.00;;;;;;5070128;28;20481;-74
2022/01/11 05:42:33;;;;;;;0.60;0.53;;;4.30;1.00;;;;;;5057792;28;20455;-75
2022/01/11 05:45:04;;;;;;;1.90;1.80;;;4.40;1.00;;;;;;5057200;28;20759;-75
2022/01/11 05:47:32;;;;;;;0.50;0.10;;;4.30;1.00;;;;;;5054174;28;20449;-75
2022/01/11 05:50:01;;;;;;;0.50;0.10;;;4.30;1.00;;;;;;5072004;28;20470;-74
2022/01/11 05:52:29;;;;;;;0.50;0.20;;;4.30;1.00;;;;;;5074408;28;20474;-74
2022/01/11 05:54:57;;;;;;;0.50;0.10;;;4.30;1.00;;;;;;5072604;28;20440;-75
2022/01/11 05:57:25;;;;;;;1.10;0.67;;;4.30;1.00;;;;;;5074454;28;20430;-75
2022/01/11 05:59:52;;;;;;;0.80;0.57;;;4.30;1.00;;;;;;5074270;28;20466;-74
2022/01/11 06:02:22;;;;;;;0.50;0.10;;;4.30;1.00;;;;;;5074571;28;20436;-75
2022/01/11 06:04:50;;;;;;;0.50;0.10;;;4.30;1.00;;;;;;5074079;28;20819;-75
2022/01/11 06:07:18;;;;;;;0.50;0.10;;;4.30;1.00;;;;;;5079824;28;20447;-74
2022/01/11 06:09:46;;;;;;;0.50;0.10;;;4.30;1.00;;;;;;5081225;28;20454;-75
2022/01/11 06:12:13;;;;;;;0.50;0.10;;;4.40;1.00;;;;;;5074429;28;20978;-75
2022/01/11 06:14:41;;;;;;;0.50;0.10;;;4.40;1.00;;;;;;5067321;28;20541;-74
2022/01/11 06:17:09;;;;;;;0.77;0.77;;;4.40;1.00;;;;;;5073654;28;20438;-74
2022/01/11 06:19:38;;;;;;;0.50;0.10;;;4.40;1.00;;;;;;5073413;28;20506;-75
2022/01/11 06:22:06;;;;;;;0.50;0.10;;;4.40;1.00;;;;;;5072823;28;20442;-75
2022/01/11 06:24:34;;;;;;;0.60;0.40;;;4.40;1.00;;;;;;5072593;28;20536;-74
2022/01/11 06:27:02;;;;;;;0.70;0.43;;;4.50;1.00;;;;;;5074500;28;20453;-75
2022/01/11 06:29:30;;;;;;;1.43;0.50;;;4.40;1.00;;;;;;5073697;28;20468;-75
2022/01/11 06:31:58;;;;;;;0.87;0.87;;;4.40;1.00;;;;;;5072075;28;21097;-75
2022/01/11 06:34:25;;;;;;;0.50;0.20;;;4.30;1.00;;;;;;5072259;28;20821;-73
2022/01/11 06:36:55;;;;;;;7.03;2.20;;;4.30;1.00;;;;;;5072925;28;20447;-74
2022/01/11 06:39:23;;;;;;;0.70;0.43;;;4.20;1.00;;;;;;5071655;28;20444;-73
2022/01/11 06:41:50;;;;;;;0.50;0.10;;;4.10;1.00;;;;;;5073001;28;20445;-74
2022/01/11 06:44:18;;;;;;;0.60;0.50;;;4.10;1.00;;;;;;5072163;28;20814;-74
2022/01/11 06:46:46;;;;;;;0.50;0.20;;;4.10;1.00;;;;;;5072733;28;20537;-75
2022/01/11 06:49:14;;;;;;;0.50;0.10;;;4.10;1.00;;;;;;5072088;28;20441;-76
2022/01/11 06:51:42;;;;;;;0.50;0.10;;;4.10;1.00;;;;;;5072838;28;20439;-74
2022/01/11 06:54:11;;;;;;;0.50;0.10;;;4.20;1.00;;;;;;5072421;28;20814;-75
2022/01/11 06:56:39;;;;;;;0.50;0.10;;;4.30;1.00;;;;;;5072986;28;20666;-74
2022/01/11 06:59:07;;;;;;;0.50;0.20;;;4.20;1.00;;;;;;5072839;28;20446;-75
2022/01/11 07:01:35;;;;;;;0.50;0.10;;;4.20;1.00;;;;;;5073090;28;20785;-75
2022/01/11 07:04:04;;;;;;;1.43;1.03;;;4.30;1.00;;;;;;5072921;28;20443;-75
2022/01/11 07:06:31;;;;;;;0.50;0.10;;;4.40;1.00;;;;;;5075860;28;20537;-75
2022/01/11 07:08:59;;;;;;;0.50;0.10;;;4.40;1.00;;;;;;5079660;28;20447;-74
2022/01/11 07:11:28;;;;;;;0.50;0.10;;;4.30;1.00;;;;;;5080185;28;20531;-75
2022/01/11 07:13:56;;;;;;;0.50;0.10;;;4.40;1.00;;;;;;5070412;28;20509;-75
2022/01/11 07:16:24;;;;;;;0.50;0.10;;;4.40;1.00;;;;;;5075096;28;20445;-74
2022/01/11 07:18:52;;;;;;;0.50;0.10;;;4.40;1.00;;;;;;5072276;28;20534;-75
2022/01/11 07:21:20;;;;;;;0.50;0.10;;;4.50;1.00;;;;;;5072900;28;20509;-74
2022/01/11 07:23:48;;;;;;;0.50;0.10;;;4.40;1.00;;;;;;5072875;28;20438;-75
2022/01/11 07:26:16;;;;;;;0.50;0.10;;;4.50;1.00;;;;;;5071548;28;20449;-75
2022/01/11 07:28:46;;;;;;;0.50;0.10;;;4.50;1.00;;;;;;5072817;28;20554;-74
2022/01/11 07:31:14;;;;;;;0.50;0.10;;;4.50;1.00;;;;;;5071356;28;20981;-74
2022/01/11 07:33:42;;;;;;;0.50;0.10;;;4.50;1.00;;;;;;5072060;28;20472;-74
2022/01/11 07:36:11;;;;;;;0.50;0.10;;;4.50;1.00;;;;;;5072339;28;20446;-75
2022/01/11 07:38:38;;;;;;;0.50;0.10;;;4.50;1.00;;;;;;5072429;28;20466;-75
2022/01/11 07:41:07;;;;;;;1.50;1.40;;;4.60;1.00;;;;;;5075506;28;20488;-73
2022/01/11 07:43:35;;;;;;;0.50;0.10;;;4.50;1.00;;;;;;5071427;28;20463;-75
2022/01/11 07:46:04;;;;;;;0.50;0.10;;;4.50;1.00;;;;;;5070713;28;20467;-75
2022/01/11 07:48:32;;;;;;;0.50;0.10;;;4.50;1.00;;;;;;5069946;28;20497;-73
2022/01/11 07:51:00;;;;;;;10.33;4.27;;;4.50;1.00;;;;;;5072656;28;20570;-75
2022/01/11 07:53:28;;;;;;;0.50;0.10;;;4.50;1.00;;;;;;5075538;28;21004;-73
2022/01/11 07:55:56;;;;;;;0.50;0.10;;;4.50;1.00;;;;;;5077330;28;20457;-74
2022/01/11 07:58:24;;;;;;;0.50;0.10;;;4.50;1.00;;;;;;5073761;28;20547;-74
2022/01/11 08:00:52;;;;;;;0.50;0.10;;;4.50;1.00;;;;;;5073601;28;20558;-74
2022/01/11 08:03:21;;;;;;;0.50;0.10;;;4.50;1.00;;;;;;5073230;28;20476;-73
2022/01/11 08:05:50;;;;;;;0.50;0.10;;;4.40;1.00;;;;;;5072155;28;20932;-73
2022/01/11 08:08:18;;;;;;;1.13;1.13;;;4.50;1.00;;;;;;5071909;28;20454;-73
2022/01/11 08:10:46;;;;;;;0.50;0.10;;;4.50;1.00;;;;;;5073099;28;20468;-73
2022/01/11 08:13:15;;;;;;;0.50;0.10;;;4.50;1.00;;;;;;5072054;28;20498;-72
2022/01/11 08:15:44;;;;;;;0.50;0.10;;;4.50;1.00;;;;;;5072540;28;20448;-74
2022/01/11 08:18:12;;;;;;;0.50;0.23;;;4.60;1.00;;;;;;5064380;28;20441;-73
2022/01/11 08:20:42;;;;;;;1.27;0.70;;;4.70;1.00;;;;;;5074168;28;20458;-74
2022/01/11 08:23:11;;;;;;;0.50;0.10;;;4.70;1.00;;;;;;5080538;28;20467;-73
2022/01/11 08:25:39;;;;;;;0.50;0.10;;;4.70;1.00;;;;;;5071823;28;20896;-74
2022/01/11 08:28:07;;;;;;;0.50;0.10;;;4.70;1.00;;;;;;5074048;28;20459;-73
2022/01/11 08:30:37;;;;;;;0.50;0.10;;;4.70;1.00;;;;;;5077187;28;20936;-74
2022/01/11 08:33:06;;;;;;;0.50;0.10;;;4.70;1.00;;;;;;5076142;28;20466;-74
2022/01/11 08:35:35;;;;;;;0.50;0.10;;;4.80;1.00;;;;;;5076173;28;21052;-73
2022/01/11 08:38:06;;;;;;;0.73;0.20;;;4.80;1.00;;;;;;5076252;28;20454;-75
2022/01/11 08:40:34;;;;;;;0.50;0.10;;;4.90;1.00;;;;;;5075735;28;20512;-75
2022/01/11 08:43:04;;;;;;;0.50;0.10;;;5.00;1.00;;;;;;5076422;28;20450;-75
2022/01/11 08:45:32;;;;;;;0.60;0.40;;;5.00;1.00;;;;;;5076082;28;20445;-74
2022/01/11 08:48:01;;;;;;;0.50;0.10;;;5.10;1.00;;;;;;5072111;28;20900;-75
2022/01/11 08:50:34;;;;;;;0.50;0.10;;;5.10;1.00;;;;;;5075634;28;21122;-74
2022/01/11 08:53:02;;;;;;;0.50;0.10;;;5.10;1.00;;;;;;5076399;28;20490;-75
2022/01/11 08:55:31;;;;;;;0.50;0.10;;;5.20;1.00;;;;;;5075451;28;20866;-75
2022/01/11 08:58:01;;;;;;;0.50;0.20;;;5.20;1.00;;;;;;5074979;28;20489;-74
2022/01/11 09:00:29;;;;;;;0.50;0.10;;;5.20;1.00;;;;;;5075889;28;20506;-73
2022/01/11 09:02:56;;;;;;;0.60;0.30;;;5.20;1.00;;;;;;5076428;28;20492;-74
2022/01/11 09:05:24;;;;;;;0.50;0.10;;;5.30;1.00;;;;;;5076166;28;20453;-74
2022/01/11 09:07:52;;;;;;;2.83;1.20;;;5.20;1.00;;;;;;5076078;28;20443;-75
2022/01/11 09:10:20;;;;;;;0.50;0.10;;;5.30;1.00;;;;;;5074028;28;20463;-75
2022/01/11 09:12:50;;;;;;;0.50;0.10;;;5.30;1.00;;;;;;5074476;28;20466;-75
2022/01/11 09:15:19;;;;;;;0.50;0.10;;;5.30;1.00;;;;;;5076381;28;20440;-75
2022/01/11 09:17:47;;;;;;;0.50;0.10;;;5.40;1.00;;;;;;5080590;28;20458;-75
2022/01/11 09:20:16;;;;;;;2.63;2.43;;;5.40;1.00;;;;;;5083246;28;20478;-75
2022/01/11 09:22:44;;;;;;;0.50;0.10;;;5.40;1.00;;;;;;5076906;28;20446;-74
2022/01/11 09:25:15;;;;;;;0.50;0.10;;;5.50;1.00;;;;;;5078809;28;20438;-74
2022/01/11 09:27:43;;;;;;;0.50;0.20;;;5.50;1.00;;;;;;5076918;28;20461;-74
2022/01/11 09:30:15;;;;;;;0.50;0.10;;;5.50;1.00;;;;;;5076054;28;20473;-74
2022/01/11 09:32:43;;;;;;;0.50;0.10;;;5.50;1.00;;;;;;5076244;28;20434;-73
2022/01/11 09:35:14;;;;;;;0.50;0.20;;;5.60;1.00;;;;;;5077079;28;20669;-72
2022/01/11 09:37:44;;;;;;;0.50;0.10;;;5.60;1.00;;;;;;5077467;28;20537;-75
2022/01/11 09:40:12;;;;;;;0.60;0.53;;;5.70;1.00;;;;;;5074926;28;20482;-75
2022/01/11 09:42:40;;;;;;;0.60;0.30;;;6.50;1.00;;;;;;5076671;28;20450;-74
2022/01/11 09:45:10;;;;;;;0.50;0.10;;;5.70;1.00;;;;;;5079026;28;20690;-73
2022/01/11 09:47:41;;;;;;;0.50;0.20;;;5.70;1.00;;;;;;5079895;28;20465;-74
2022/01/11 09:50:11;;;;;;;0.50;0.10;;;5.70;1.00;;;;;;5069790;28;20990;-74
2022/01/11 09:52:39;;;;;;;0.50;0.10;;;5.70;1.00;;;;;;5073812;28;20442;-75
2022/01/11 09:55:09;;;;;;;0.50;0.10;;;5.70;1.00;;;;;;5073391;28;20961;-75
2022/01/11 09:57:38;;;;;;;1.80;1.70;;;5.70;1.00;;;;;;5073735;28;20435;-74
2022/01/11 10:00:10;;;;;;;0.50;0.10;;;5.70;1.00;;;;;;5074674;28;20458;-75
2022/01/11 10:02:39;;;;;;;0.50;0.10;;;5.80;1.00;;;;;;5075301;28;20585;-75
2022/01/11 10:05:10;;;;;;;0.50;0.10;;;5.80;1.00;;;;;;5075724;28;20465;-75
2022/01/11 10:07:40;;;;;;;0.50;0.10;;;5.80;1.00;;;;;;5074126;28;20469;-74
2022/01/11 10:10:14;;;;;;;0.50;0.10;;;5.80;1.00;;;;;;5074149;28;20495;-74
2022/01/11 10:12:45;;;;;;;0.50;0.20;;;5.80;1.00;;;;;;5070806;28;21021;-74
2022/01/11 10:15:13;;;;;;;0.50;0.10;;;5.80;1.00;;;;;;5072228;28;20566;-74
2022/01/11 10:17:46;;;;;;;0.50;0.10;;;5.80;1.00;;;;;;5076586;28;21032;-75
2022/01/11 10:20:16;;;;;;;0.50;0.10;;;5.90;1.00;;;;;;5074905;28;20454;-74
2022/01/11 10:22:50;;;;;;;1.60;1.50;;;5.90;1.00;;;;;;5075683;28;20908;-75
2022/01/11 10:25:18;;;;;;;0.70;0.63;;;5.90;1.00;;;;;;5070697;28;20431;-75
2022/01/11 10:27:54;;;;;;;0.50;0.10;;;5.90;1.00;;;;;;5069793;28;20460;-74
2022/01/11 10:30:23;;;;;;;0.50;0.10;;;5.90;1.00;;;;;;5070154;28;20462;-75
2022/01/11 10:32:57;;;;;;;0.50;0.10;;;5.90;1.00;;;;;;5072839;28;20802;-75
2022/01/11 10:35:27;;;;;;;0.50;0.10;;;5.90;1.00;;;;;;5068171;28;20542;-75
2022/01/11 10:38:14;;;;;;;0.50;0.10;;;5.90;1.00;;;;;;5072873;28;20435;-75
2022/01/11 10:40:44;;;;;;;1.23;1.17;;;6.00;1.00;;;;;;5080616;28;20897;-74
2022/01/11 10:43:15;;;;;;;0.50;0.10;;;6.00;1.00;;;;;;5080511;28;20442;-75
2022/01/11 10:45:44;;;;;;;0.50;0.10;;;6.00;1.00;;;;;;5075225;28;20438;-73
2022/01/11 10:48:15;;;;;;;0.60;0.50;;;6.00;1.00;;;;;;5073503;28;20953;-74
2022/01/11 10:50:45;;;;;;;0.50;0.10;;;6.00;1.00;;;;;;5074399;28;20459;-75
2022/01/11 10:53:15;;;;;;;0.60;0.47;;;6.00;1.00;;;;;;5073115;28;20439;-74
2022/01/11 10:55:44;;;;;;;0.50;0.10;;;6.10;1.00;;;;;;5075726;28;20489;-75
2022/01/11 10:58:36;;;;;;;0.50;0.10;;;6.10;1.00;;;;;;5072658;28;20487;-73
2022/01/11 11:01:06;;;;;;;0.50;0.10;;;6.10;1.00;;;;;;5068987;28;20481;-74
2022/01/11 11:03:38;;;;;;;0.50;0.10;;;6.10;1.00;;;;;;5073135;28;20805;-76
2022/01/11 11:06:10;;;;;;;0.50;0.10;;;6.10;1.00;;;;;;5072493;28;20438;-74
2022/01/11 11:08:40;;;;;;;4.47;4.17;;;6.10;1.00;;;;;;5072549;28;20438;-74
2022/01/11 11:11:10;;;;;;;0.50;0.10;;;6.10;1.00;;;;;;5070925;28;20973;-74
2022/01/11 11:13:40;;;;;;;0.50;0.10;;;6.10;1.00;;;;;;5073153;28;20441;-74
2022/01/11 11:16:13;;;;;;;0.50;0.10;;;6.10;1.00;;;;;;5075811;28;20485;-74
2022/01/11 11:18:43;;;;;;;0.50;0.10;;;6.10;1.00;;;;;;5078824;28;20911;-75
2022/01/11 11:21:15;;;;;;;0.50;0.10;;;6.10;1.00;;;;;;5072569;28;21043;-75
2022/01/11 11:23:44;;;;;;;1.40;1.33;;;6.10;1.00;;;;;;5071315;28;20510;-75
2022/01/11 11:26:13;;;;;;;1.37;0.90;;;6.10;1.00;;;;;;5072622;28;20436;-74
2022/01/11 11:28:44;;;;;;;8.10;7.80;;;6.10;1.00;;;;;;5069893;28;20836;-74
2022/01/11 11:31:12;;;;;;;0.50;0.10;;;6.10;1.00;;;;;;5072666;28;20473;-73
2022/01/11 11:33:43;;;;;;;0.50;0.10;;;6.10;1.00;;;;;;5070151;28;20530;-75
2022/01/11 11:36:13;;;;;;;0.50;0.10;;;6.10;1.00;;;;;;5072355;28;20488;-74
2022/01/11 11:38:46;;;;;;;0.80;0.50;;;6.10;1.00;;;;;;5070850;28;20986;-76
2022/01/11 11:41:16;;;;;;;0.50;0.10;;;6.20;1.00;;;;;;5096878;23;20615;-78
2022/01/11 11:44:11;;;;;;;0.50;0.20;;;6.20;1.00;;;;;;5093246;28;20450;-77
2022/01/11 11:46:47;;;;;;;0.60;0.40;;;6.20;1.00;;;;;;5092890;28;20445;-77
2022/01/11 11:49:18;;;;;;;0.50;0.10;;;6.40;1.00;;;;;;5073256;28;20958;-78
2022/01/11 11:51:47;;;;;;;0.50;0.10;;;6.30;1.00;;;;;;5079364;28;20518;-78
2022/01/11 11:54:16;;;;;;;0.50;0.10;;;6.30;1.00;;;;;;5090284;28;20462;-78
2022/01/11 11:56:45;;;;;;;0.50;0.10;;;6.40;1.00;;;;;;5094115;28;20452;-78
2022/01/11 11:59:14;;;;;;;0.50;0.10;;;6.40;1.00;;;;;;5092392;28;20458;-78
2022/01/11 12:01:45;;;;;;;0.50;0.10;;;6.40;1.00;;;;;;5091598;28;20486;-79
2022/01/11 12:04:16;;;;;;;0.50;0.10;;;6.40;1.00;;;;;;5099702;28;20446;-78
2022/01/11 12:06:45;;;;;;;0.50;0.10;;;6.50;1.00;;;;;;5094323;28;20462;-78
2022/01/11 12:09:15;;;;;;;0.50;0.10;;;6.50;1.00;;;;;;5098454;28;20450;-76
2022/01/11 12:11:45;;;;;;;0.50;0.10;;;6.60;1.00;;;;;;5099071;28;20917;-77
2022/01/11 12:14:37;;;;;;;0.50;0.10;;;6.70;1.00;;;;;;5096754;28;20821;-78
2022/01/11 12:17:24;;;;;;;0.50;0.10;;;6.70;1.00;;;;;;5074786;28;20433;-79
2022/01/11 12:20:07;;;;;;;11.43;4.00;;;6.80;1.00;;;;;;5096239;28;20431;-78
2022/01/11 12:22:41;;;;;;;0.50;0.10;;;6.80;1.00;;;;;;5101563;28;20561;-78
2022/01/11 12:25:28;;;;;;;0.50;0.10;;;6.80;1.00;;;;;;5099678;28;20433;-78
2022/01/11 12:28:01;;;;;;;0.50;0.10;;;6.80;1.00;;;;;;5103297;28;20518;-79
2022/01/11 12:30:32;;;;;;;0.50;0.10;;;6.80;1.00;;;;;;5106222;28;20525;-77
2022/01/11 12:33:13;;;;;;;0.50;0.10;;;6.90;1.00;;;;;;5109482;28;20454;-78
2022/01/11 12:36:00;;;;;;;0.50;0.10;;;6.90;1.00;;;;;;5104952;28;20517;-79
2022/01/11 12:38:33;;;;;;;0.50;0.10;;;6.90;1.00;;;;;;5102320;28;20439;-79
2022/01/11 12:41:38;;;;;;;0.50;0.10;;;6.90;1.00;;;;;;5100198;28;20490;-79
2022/01/11 12:44:20;;;;;;;2.90;2.80;;;6.90;1.00;;;;;;5104068;28;20477;-78
2022/01/11 12:46:54;;;;;;;21.30;19.80;;;7.00;1.00;;;;;;5104057;28;20486;-79
2022/01/11 12:49:23;;;;;;;0.50;0.10;;;7.00;1.00;;;;;;5103301;28;20443;-80
2022/01/11 12:51:55;;;;;;;0.50;0.10;;;7.00;1.00;;;;;;5105537;28;20458;-78
2022/01/11 12:54:28;;;;;;;0.50;0.10;;;7.10;1.00;;;;;;5104088;28;20480;-78
2022/01/11 12:56:57;;;;;;;0.50;0.10;;;7.10;1.00;;;;;;5103377;28;20485;-79
2022/01/11 12:59:29;;;;;;;0.50;0.10;;;7.20;1.00;;;;;;5105513;28;20447;-78
2022/01/11 13:02:04;;;;;;;0.60;0.43;;;7.30;1.00;;;;;;5105736;28;20474;-79
2022/01/11 13:04:47;;;;;;;0.50;0.10;;;7.30;1.00;;;;;;5112418;28;20451;-78
2022/01/11 13:07:24;;;;;;;0.70;0.57;;;7.40;1.00;;;;;;5104184;28;20446;-79
2022/01/11 13:10:07;;;;;;;0.50;0.10;;;7.40;1.00;;;;;;5103344;28;20965;-78
2022/01/11 13:12:55;;;;;;;0.60;0.30;;;7.40;1.00;;;;;;5104567;28;20473;-79
2022/01/11 13:15:32;;;;;;;0.50;0.10;;;7.40;1.00;;;;;;5102909;28;20491;-78
2022/01/11 13:18:06;;;;;;;0.50;0.20;;;7.40;1.00;;;;;;5105474;28;20447;-79
2022/01/11 13:20:55;;;;;;;0.50;0.10;;;7.40;1.00;;;;;;5104731;28;20466;-80
2022/01/11 13:23:30;;;;;;;0.87;0.87;;;7.40;1.00;;;;;;5102525;28;20447;-79
2022/01/11 13:26:00;;;;;;;0.50;0.10;;;7.40;1.00;;;;;;5101368;28;20443;-78